sensor_id;sensor_type;location;lat;lon;timestamp;temperature;humidity
22633;DHT22;11483;55.828;37.488;2022-08-01T00:01:12;18.60;99.90
22633;DHT22;11483;55.828;37.488;2022-08-01T00:03:39;18.70;99.90
22633;DHT22;11483;55.828;37.488;2022-08-01T00:06:04;18.70;99.90
22633;DHT22;11483;55.828;37.488;2022-08-01T00:08:30;18.80;99.90
22633;DHT22;11483;55.828;37.488;2022-08-01T00:10:56;18.70;99.90
22633;DHT22;11483;55.828;37.488;2022-08-01T00:13:22;18.70;99.90
22633;DHT22;11483;55.828;37.488;2022-08-01T00:15:48;18.70;99.90
22633;DHT22;11483;55.828;37.488;2022-08-01T00:18:14;18.60;99.90
22633;DHT22;11483;55.828;37.488;2022-08-01T00:20:40;18.60;99.90
22633;DHT22;11483;55.828;37.488;2022-08-01T00:23:05;18.50;99.90
22633;DHT22;11483;55.828;37.488;2022-08-01T00:25:32;18.50;99.90
22633;DHT22;11483;55.828;37.488;2022-08-01T00:27:57;18.50;99.90
22633;DHT22;11483;55.828;37.488;2022-08-01T00:30:23;18.40;99.90
22633;DHT22;11483;55.828;37.488;2022-08-01T00:32:49;18.30;99.90
22633;DHT22;11483;55.828;37.488;2022-08-01T00:35:15;18.30;99.90
22633;DHT22;11483;55.828;37.488;2022-08-01T00:37:42;18.20;99.90
22633;DHT22;11483;55.828;37.488;2022-08-01T00:40:08;18.20;99.90
22633;DHT22;11483;55.828;37.488;2022-08-01T00:42:34;18.20;99.90
22633;DHT22;11483;55.828;37.488;2022-08-01T00:45:00;18.10;99.90
22633;DHT22;11483;55.828;37.488;2022-08-01T00:47:25;18.10;99.90
22633;DHT22;11483;55.828;37.488;2022-08-01T00:49:52;18.20;99.90
22633;DHT22;11483;55.828;37.488;2022-08-01T00:52:18;18.20;99.90
22633;DHT22;11483;55.828;37.488;2022-08-01T00:54:44;18.20;99.90
22633;DHT22;11483;55.828;37.488;2022-08-01T00:57:10;18.10;99.90
22633;DHT22;11483;55.828;37.488;2022-08-01T00:59:37;18.10;99.90
22633;DHT22;11483;55.828;37.488;2022-08-01T01:02:04;18.10;99.90
22633;DHT22;11483;55.828;37.488;2022-08-01T01:04:30;18.00;99.90
22633;DHT22;11483;55.828;37.488;2022-08-01T01:09:44;17.90;99.90
22633;DHT22;11483;55.828;37.488;2022-08-01T01:15:15;17.80;99.90
22633;DHT22;11483;55.828;37.488;2022-08-01T01:17:52;17.80;99.90
22633;DHT22;11483;55.828;37.488;2022-08-01T01:20:23;17.80;99.90
22633;DHT22;11483;55.828;37.488;2022-08-01T01:22:55;17.70;99.90
22633;DHT22;11483;55.828;37.488;2022-08-01T01:25:40;17.70;99.90
22633;DHT22;11483;55.828;37.488;2022-08-01T01:30:44;17.60;99.90
22633;DHT22;11483;55.828;37.488;2022-08-01T01:33:11;17.60;99.90
22633;DHT22;11483;55.828;37.488;2022-08-01T01:35:42;17.60;99.90
22633;DHT22;11483;55.828;37.488;2022-08-01T01:38:29;17.60;99.90
22633;DHT22;11483;55.828;37.488;2022-08-01T01:40:58;17.50;99.90
22633;DHT22;11483;55.828;37.488;2022-08-01T01:43:25;17.50;99.90
22633;DHT22;11483;55.828;37.488;2022-08-01T01:45:53;17.50;99.90
22633;DHT22;11483;55.828;37.488;2022-08-01T01:48:20;17.50;99.90
22633;DHT22;11483;55.828;37.488;2022-08-01T01:50:48;17.50;99.90
22633;DHT22;11483;55.828;37.488;2022-08-01T01:53:17;17.30;99.90
22633;DHT22;11483;55.828;37.488;2022-08-01T01:55:46;17.30;99.90
22633;DHT22;11483;55.828;37.488;2022-08-01T01:58:14;17.40;99.90
22633;DHT22;11483;55.828;37.488;2022-08-01T02:00:45;17.40;99.90
22633;DHT22;11483;55.828;37.488;2022-08-01T02:03:12;17.50;99.90
22633;DHT22;11483;55.828;37.488;2022-08-01T02:05:39;17.50;99.90
22633;DHT22;11483;55.828;37.488;2022-08-01T02:08:05;17.60;99.90
22633;DHT22;11483;55.828;37.488;2022-08-01T02:10:34;17.60;99.90
22633;DHT22;11483;55.828;37.488;2022-08-01T02:13:03;17.60;99.90
22633;DHT22;11483;55.828;37.488;2022-08-01T02:15:35;17.70;99.90
22633;DHT22;11483;55.828;37.488;2022-08-01T02:18:04;17.80;99.90
22633;DHT22;11483;55.828;37.488;2022-08-01T02:20:34;17.70;99.90
22633;DHT22;11483;55.828;37.488;2022-08-01T02:23:10;17.80;99.90
22633;DHT22;11483;55.828;37.488;2022-08-01T02:25:42;17.90;99.90
22633;DHT22;11483;55.828;37.488;2022-08-01T02:28:25;17.90;99.90
22633;DHT22;11483;55.828;37.488;2022-08-01T02:30:56;18.00;99.90
22633;DHT22;11483;55.828;37.488;2022-08-01T02:33:39;17.90;99.90
22633;DHT22;11483;55.828;37.488;2022-08-01T02:36:07;18.00;99.90
22633;DHT22;11483;55.828;37.488;2022-08-01T02:38:40;18.10;99.90
22633;DHT22;11483;55.828;37.488;2022-08-01T02:41:10;17.90;99.90
22633;DHT22;11483;55.828;37.488;2022-08-01T02:43:42;17.90;99.90
22633;DHT22;11483;55.828;37.488;2022-08-01T02:46:11;17.90;99.90
22633;DHT22;11483;55.828;37.488;2022-08-01T02:48:38;17.90;99.90
22633;DHT22;11483;55.828;37.488;2022-08-01T02:51:06;18.00;99.90
22633;DHT22;11483;55.828;37.488;2022-08-01T02:53:35;18.10;99.90
22633;DHT22;11483;55.828;37.488;2022-08-01T02:56:05;18.10;99.90
22633;DHT22;11483;55.828;37.488;2022-08-01T02:58:32;18.10;99.90
22633;DHT22;11483;55.828;37.488;2022-08-01T03:00:59;18.20;99.90
22633;DHT22;11483;55.828;37.488;2022-08-01T03:03:25;18.30;99.90
22633;DHT22;11483;55.828;37.488;2022-08-01T03:05:52;18.30;99.90
22633;DHT22;11483;55.828;37.488;2022-08-01T03:08:19;18.30;99.90
22633;DHT22;11483;55.828;37.488;2022-08-01T03:10:45;18.30;99.90
22633;DHT22;11483;55.828;37.488;2022-08-01T03:13:13;18.20;99.90
22633;DHT22;11483;55.828;37.488;2022-08-01T03:15:41;18.30;99.90
22633;DHT22;11483;55.828;37.488;2022-08-01T03:18:09;18.30;99.90
22633;DHT22;11483;55.828;37.488;2022-08-01T03:20:36;18.30;99.90
22633;DHT22;11483;55.828;37.488;2022-08-01T03:23:05;18.40;99.90
22633;DHT22;11483;55.828;37.488;2022-08-01T03:25:33;18.50;99.90
22633;DHT22;11483;55.828;37.488;2022-08-01T03:28:03;18.50;99.90
22633;DHT22;11483;55.828;37.488;2022-08-01T03:30:30;18.70;99.90
22633;DHT22;11483;55.828;37.488;2022-08-01T03:32:57;18.70;99.90
22633;DHT22;11483;55.828;37.488;2022-08-01T03:35:27;18.70;99.90
22633;DHT22;11483;55.828;37.488;2022-08-01T03:37:55;18.80;99.90
22633;DHT22;11483;55.828;37.488;2022-08-01T03:40:25;18.90;99.90
22633;DHT22;11483;55.828;37.488;2022-08-01T03:43:02;18.90;99.90
22633;DHT22;11483;55.828;37.488;2022-08-01T03:45:35;19.10;99.90
22633;DHT22;11483;55.828;37.488;2022-08-01T03:48:08;19.10;99.90
22633;DHT22;11483;55.828;37.488;2022-08-01T03:50:36;19.20;99.90
22633;DHT22;11483;55.828;37.488;2022-08-01T03:53:07;19.20;99.90
22633;DHT22;11483;55.828;37.488;2022-08-01T03:55:36;19.30;99.90
22633;DHT22;11483;55.828;37.488;2022-08-01T03:58:05;19.40;99.90
22633;DHT22;11483;55.828;37.488;2022-08-01T04:00:32;19.40;99.90
22633;DHT22;11483;55.828;37.488;2022-08-01T04:02:58;19.50;99.90
22633;DHT22;11483;55.828;37.488;2022-08-01T04:05:24;19.60;99.90
22633;DHT22;11483;55.828;37.488;2022-08-01T04:07:51;19.60;99.90
22633;DHT22;11483;55.828;37.488;2022-08-01T04:10:24;19.70;99.90
22633;DHT22;11483;55.828;37.488;2022-08-01T04:12:50;19.80;99.90
22633;DHT22;11483;55.828;37.488;2022-08-01T04:15:16;19.80;99.90
22633;DHT22;11483;55.828;37.488;2022-08-01T04:17:42;19.90;99.90
22633;DHT22;11483;55.828;37.488;2022-08-01T04:20:08;20.10;99.90
22633;DHT22;11483;55.828;37.488;2022-08-01T04:22:34;20.00;99.90
22633;DHT22;11483;55.828;37.488;2022-08-01T04:25:04;19.90;99.90
22633;DHT22;11483;55.828;37.488;2022-08-01T04:27:34;19.90;99.90
22633;DHT22;11483;55.828;37.488;2022-08-01T04:30:02;20.00;99.90
22633;DHT22;11483;55.828;37.488;2022-08-01T04:32:33;20.00;99.90
22633;DHT22;11483;55.828;37.488;2022-08-01T04:35:05;20.20;99.90
22633;DHT22;11483;55.828;37.488;2022-08-01T04:37:33;20.20;99.90
22633;DHT22;11483;55.828;37.488;2022-08-01T04:40:00;20.30;99.90
22633;DHT22;11483;55.828;37.488;2022-08-01T04:42:26;20.50;99.90
22633;DHT22;11483;55.828;37.488;2022-08-01T04:44:53;20.50;99.90
22633;DHT22;11483;55.828;37.488;2022-08-01T04:47:20;20.50;99.90
22633;DHT22;11483;55.828;37.488;2022-08-01T04:49:46;20.60;99.90
22633;DHT22;11483;55.828;37.488;2022-08-01T04:52:12;20.60;99.90
22633;DHT22;11483;55.828;37.488;2022-08-01T04:54:38;20.80;99.90
22633;DHT22;11483;55.828;37.488;2022-08-01T04:57:04;20.70;99.90
22633;DHT22;11483;55.828;37.488;2022-08-01T04:59:32;20.80;99.90
22633;DHT22;11483;55.828;37.488;2022-08-01T05:02:09;21.00;99.90
22633;DHT22;11483;55.828;37.488;2022-08-01T05:04:35;21.10;99.90
22633;DHT22;11483;55.828;37.488;2022-08-01T05:07:02;21.30;99.90
22633;DHT22;11483;55.828;37.488;2022-08-01T05:09:28;21.30;99.90
22633;DHT22;11483;55.828;37.488;2022-08-01T05:11:54;21.50;99.90
22633;DHT22;11483;55.828;37.488;2022-08-01T05:14:20;21.60;99.90
22633;DHT22;11483;55.828;37.488;2022-08-01T05:16:46;21.50;99.90
22633;DHT22;11483;55.828;37.488;2022-08-01T05:19:12;21.50;99.90
22633;DHT22;11483;55.828;37.488;2022-08-01T05:21:38;21.70;99.90
22633;DHT22;11483;55.828;37.488;2022-08-01T05:24:05;21.80;99.90
22633;DHT22;11483;55.828;37.488;2022-08-01T05:26:31;21.80;99.90
22633;DHT22;11483;55.828;37.488;2022-08-01T05:28:57;21.80;99.90
22633;DHT22;11483;55.828;37.488;2022-08-01T05:31:22;21.90;99.90
22633;DHT22;11483;55.828;37.488;2022-08-01T05:33:48;22.00;99.90
22633;DHT22;11483;55.828;37.488;2022-08-01T05:36:14;22.20;99.90
22633;DHT22;11483;55.828;37.488;2022-08-01T05:38:40;22.30;99.90
22633;DHT22;11483;55.828;37.488;2022-08-01T05:41:06;22.30;99.90
22633;DHT22;11483;55.828;37.488;2022-08-01T05:43:31;22.30;99.90
22633;DHT22;11483;55.828;37.488;2022-08-01T05:45:57;22.30;99.90
22633;DHT22;11483;55.828;37.488;2022-08-01T05:48:24;22.50;99.90
22633;DHT22;11483;55.828;37.488;2022-08-01T06:19:40;23.80;99.90
22633;DHT22;11483;55.828;37.488;2022-08-01T06:22:06;23.90;99.90
22633;DHT22;11483;55.828;37.488;2022-08-01T06:24:32;24.00;99.90
22633;DHT22;11483;55.828;37.488;2022-08-01T06:26:58;24.10;99.90
22633;DHT22;11483;55.828;37.488;2022-08-01T06:29:24;24.20;99.90
22633;DHT22;11483;55.828;37.488;2022-08-01T06:31:50;24.00;99.90
22633;DHT22;11483;55.828;37.488;2022-08-01T06:34:15;24.20;99.90
22633;DHT22;11483;55.828;37.488;2022-08-01T06:36:41;24.40;99.90
22633;DHT22;11483;55.828;37.488;2022-08-01T06:39:07;24.10;99.90
22633;DHT22;11483;55.828;37.488;2022-08-01T06:41:33;24.40;99.90
22633;DHT22;11483;55.828;37.488;2022-08-01T06:43:59;24.70;99.90
22633;DHT22;11483;55.828;37.488;2022-08-01T06:46:27;25.00;99.60
22633;DHT22;11483;55.828;37.488;2022-08-01T06:48:53;25.20;98.20
22633;DHT22;11483;55.828;37.488;2022-08-01T06:51:19;25.10;96.70
22633;DHT22;11483;55.828;37.488;2022-08-01T06:53:46;25.10;96.20
22633;DHT22;11483;55.828;37.488;2022-08-01T06:56:11;25.10;96.30
22633;DHT22;11483;55.828;37.488;2022-08-01T06:58:37;25.00;95.90
22633;DHT22;11483;55.828;37.488;2022-08-01T07:01:05;25.00;95.00
22633;DHT22;11483;55.828;37.488;2022-08-01T07:03:34;24.80;95.30
22633;DHT22;11483;55.828;37.488;2022-08-01T07:06:00;24.70;96.20
22633;DHT22;11483;55.828;37.488;2022-08-01T07:08:26;24.60;95.90
22633;DHT22;11483;55.828;37.488;2022-08-01T07:10:52;24.70;95.40
22633;DHT22;11483;55.828;37.488;2022-08-01T07:13:18;24.80;95.60
22633;DHT22;11483;55.828;37.488;2022-08-01T07:15:48;24.80;95.60
22633;DHT22;11483;55.828;37.488;2022-08-01T07:18:14;24.70;96.10
22633;DHT22;11483;55.828;37.488;2022-08-01T07:20:40;25.20;95.60
22633;DHT22;11483;55.828;37.488;2022-08-01T07:23:06;25.40;94.60
22633;DHT22;11483;55.828;37.488;2022-08-01T07:25:32;25.50;94.80
22633;DHT22;11483;55.828;37.488;2022-08-01T07:27:57;25.60;94.00
22633;DHT22;11483;55.828;37.488;2022-08-01T07:30:23;25.80;94.30
22633;DHT22;11483;55.828;37.488;2022-08-01T07:32:49;25.70;93.90
22633;DHT22;11483;55.828;37.488;2022-08-01T07:35:15;25.90;94.00
22633;DHT22;11483;55.828;37.488;2022-08-01T07:37:41;26.30;94.40
22633;DHT22;11483;55.828;37.488;2022-08-01T07:40:07;26.10;93.70
22633;DHT22;11483;55.828;37.488;2022-08-01T07:42:33;26.40;93.10
22633;DHT22;11483;55.828;37.488;2022-08-01T07:44:59;26.80;91.60
22633;DHT22;11483;55.828;37.488;2022-08-01T07:47:26;26.20;95.40
22633;DHT22;11483;55.828;37.488;2022-08-01T07:49:52;26.60;92.10
22633;DHT22;11483;55.828;37.488;2022-08-01T07:52:18;26.70;91.60
22633;DHT22;11483;55.828;37.488;2022-08-01T07:54:44;26.80;91.70
22633;DHT22;11483;55.828;37.488;2022-08-01T07:57:10;27.00;90.70
22633;DHT22;11483;55.828;37.488;2022-08-01T07:59:35;27.20;89.50
22633;DHT22;11483;55.828;37.488;2022-08-01T08:02:01;26.90;88.70
22633;DHT22;11483;55.828;37.488;2022-08-01T08:04:27;26.70;88.10
22633;DHT22;11483;55.828;37.488;2022-08-01T08:06:53;26.40;88.30
22633;DHT22;11483;55.828;37.488;2022-08-01T08:09:20;26.20;88.70
22633;DHT22;11483;55.828;37.488;2022-08-01T08:11:46;26.20;89.60
22633;DHT22;11483;55.828;37.488;2022-08-01T08:14:12;26.30;88.00
22633;DHT22;11483;55.828;37.488;2022-08-01T08:16:38;26.50;88.10
22633;DHT22;11483;55.828;37.488;2022-08-01T08:19:04;26.70;88.20
22633;DHT22;11483;55.828;37.488;2022-08-01T08:21:30;26.80;88.90
22633;DHT22;11483;55.828;37.488;2022-08-01T08:23:56;27.10;87.30
22633;DHT22;11483;55.828;37.488;2022-08-01T08:26:40;27.20;86.50
22633;DHT22;11483;55.828;37.488;2022-08-01T08:29:06;27.30;84.00
22633;DHT22;11483;55.828;37.488;2022-08-01T08:31:32;27.30;84.30
22633;DHT22;11483;55.828;37.488;2022-08-01T08:33:58;27.30;84.30
22633;DHT22;11483;55.828;37.488;2022-08-01T08:36:24;26.90;83.90
22633;DHT22;11483;55.828;37.488;2022-08-01T08:38:50;26.90;84.30
22633;DHT22;11483;55.828;37.488;2022-08-01T08:41:16;27.40;83.40
22633;DHT22;11483;55.828;37.488;2022-08-01T08:43:42;28.40;85.00
22633;DHT22;11483;55.828;37.488;2022-08-01T08:46:08;29.20;80.80
22633;DHT22;11483;55.828;37.488;2022-08-01T08:48:34;28.90;80.90
22633;DHT22;11483;55.828;37.488;2022-08-01T08:51:02;28.50;78.50
22633;DHT22;11483;55.828;37.488;2022-08-01T08:53:28;28.20;77.70
22633;DHT22;11483;55.828;37.488;2022-08-01T08:55:57;27.90;79.30
22633;DHT22;11483;55.828;37.488;2022-08-01T08:58:26;27.90;78.70
22633;DHT22;11483;55.828;37.488;2022-08-01T09:00:54;28.00;79.30
22633;DHT22;11483;55.828;37.488;2022-08-01T09:03:19;29.20;80.00
22633;DHT22;11483;55.828;37.488;2022-08-01T09:05:45;31.20;75.30
22633;DHT22;11483;55.828;37.488;2022-08-01T09:08:12;30.90;73.90
22633;DHT22;11483;55.828;37.488;2022-08-01T09:10:38;30.20;73.30
22633;DHT22;11483;55.828;37.488;2022-08-01T09:13:08;30.60;74.60
22633;DHT22;11483;55.828;37.488;2022-08-01T09:15:44;32.20;72.50
22633;DHT22;11483;55.828;37.488;2022-08-01T09:18:26;33.90;70.90
22633;DHT22;11483;55.828;37.488;2022-08-01T09:21:21;33.50;63.90
22633;DHT22;11483;55.828;37.488;2022-08-01T09:23:54;31.80;67.00
22633;DHT22;11483;55.828;37.488;2022-08-01T09:26:30;31.20;66.80
22633;DHT22;11483;55.828;37.488;2022-08-01T09:28:56;30.20;68.50
22633;DHT22;11483;55.828;37.488;2022-08-01T09:31:22;30.10;69.70
22633;DHT22;11483;55.828;37.488;2022-08-01T09:36:17;30.30;70.50
22633;DHT22;11483;55.828;37.488;2022-08-01T09:38:43;30.30;68.60
22633;DHT22;11483;55.828;37.488;2022-08-01T09:41:09;29.50;70.10
22633;DHT22;11483;55.828;37.488;2022-08-01T09:43:36;29.00;70.60
22633;DHT22;11483;55.828;37.488;2022-08-01T09:46:20;28.50;71.00
22633;DHT22;11483;55.828;37.488;2022-08-01T09:51:41;27.70;71.70
22633;DHT22;11483;55.828;37.488;2022-08-01T09:54:06;27.30;72.30
22633;DHT22;11483;55.828;37.488;2022-08-01T09:56:40;27.10;73.10
22633;DHT22;11483;55.828;37.488;2022-08-01T09:59:07;27.30;73.90
22633;DHT22;11483;55.828;37.488;2022-08-01T10:01:46;27.40;73.50
22633;DHT22;11483;55.828;37.488;2022-08-01T10:04:13;27.30;74.20
22633;DHT22;11483;55.828;37.488;2022-08-01T10:06:41;27.40;76.20
22633;DHT22;11483;55.828;37.488;2022-08-01T10:09:08;27.70;74.30
22633;DHT22;11483;55.828;37.488;2022-08-01T10:11:34;27.80;73.10
22633;DHT22;11483;55.828;37.488;2022-08-01T10:14:04;27.50;74.30
22633;DHT22;11483;55.828;37.488;2022-08-01T10:16:30;27.50;74.70
22633;DHT22;11483;55.828;37.488;2022-08-01T10:18:57;27.40;74.00
22633;DHT22;11483;55.828;37.488;2022-08-01T10:21:23;27.60;74.50
22633;DHT22;11483;55.828;37.488;2022-08-01T10:23:51;27.90;74.80
22633;DHT22;11483;55.828;37.488;2022-08-01T10:26:18;28.10;73.40
22633;DHT22;11483;55.828;37.488;2022-08-01T10:28:44;28.10;73.00
22633;DHT22;11483;55.828;37.488;2022-08-01T10:31:10;28.10;72.50
22633;DHT22;11483;55.828;37.488;2022-08-01T10:33:36;28.50;73.50
22633;DHT22;11483;55.828;37.488;2022-08-01T10:36:05;29.20;72.50
22633;DHT22;11483;55.828;37.488;2022-08-01T10:38:31;30.10;71.00
22633;DHT22;11483;55.828;37.488;2022-08-01T10:40:57;30.50;68.70
22633;DHT22;11483;55.828;37.488;2022-08-01T10:43:23;30.30;67.80
22633;DHT22;11483;55.828;37.488;2022-08-01T10:45:49;30.20;69.10
22633;DHT22;11483;55.828;37.488;2022-08-01T10:48:20;30.00;69.60
22633;DHT22;11483;55.828;37.488;2022-08-01T10:50:54;29.80;69.50
22633;DHT22;11483;55.828;37.488;2022-08-01T10:53:21;29.90;69.70
22633;DHT22;11483;55.828;37.488;2022-08-01T10:58:32;30.10;70.30
22633;DHT22;11483;55.828;37.488;2022-08-01T11:03:55;31.00;68.30
22633;DHT22;11483;55.828;37.488;2022-08-01T11:06:25;31.20;67.70
22633;DHT22;11483;55.828;37.488;2022-08-01T11:08:53;31.40;67.50
22633;DHT22;11483;55.828;37.488;2022-08-01T11:11:20;31.20;67.40
22633;DHT22;11483;55.828;37.488;2022-08-01T11:14:02;31.50;70.00
22633;DHT22;11483;55.828;37.488;2022-08-01T11:16:39;31.30;65.60
22633;DHT22;11483;55.828;37.488;2022-08-01T11:19:07;31.10;65.60
22633;DHT22;11483;55.828;37.488;2022-08-01T11:27:21;30.80;66.80
22633;DHT22;11483;55.828;37.488;2022-08-01T11:33:04;30.10;68.20
22633;DHT22;11483;55.828;37.488;2022-08-01T11:35:31;30.00;71.20
22633;DHT22;11483;55.828;37.488;2022-08-01T11:38:27;29.40;70.80
22633;DHT22;11483;55.828;37.488;2022-08-01T11:41:16;29.40;71.60
22633;DHT22;11483;55.828;37.488;2022-08-01T11:44:03;29.30;73.00
22633;DHT22;11483;55.828;37.488;2022-08-01T11:52:08;29.70;70.50
22633;DHT22;11483;55.828;37.488;2022-08-01T11:54:37;29.90;69.60
22633;DHT22;11483;55.828;37.488;2022-08-01T11:57:17;29.90;70.10
22633;DHT22;11483;55.828;37.488;2022-08-01T11:59:52;29.60;69.90
22633;DHT22;11483;55.828;37.488;2022-08-01T12:02:25;29.40;69.90
22633;DHT22;11483;55.828;37.488;2022-08-01T12:07:24;29.40;69.20
22633;DHT22;11483;55.828;37.488;2022-08-01T12:10:07;29.40;70.10
22633;DHT22;11483;55.828;37.488;2022-08-01T12:12:35;29.40;69.90
22633;DHT22;11483;55.828;37.488;2022-08-01T12:15:06;29.30;70.60
22633;DHT22;11483;55.828;37.488;2022-08-01T12:17:47;29.10;67.90
22633;DHT22;11483;55.828;37.488;2022-08-01T12:20:15;28.70;68.30
22633;DHT22;11483;55.828;37.488;2022-08-01T12:22:42;28.70;71.70
22633;DHT22;11483;55.828;37.488;2022-08-01T12:25:16;28.90;68.90
22633;DHT22;11483;55.828;37.488;2022-08-01T12:27:45;29.30;68.10
22633;DHT22;11483;55.828;37.488;2022-08-01T12:30:13;29.80;70.30
22633;DHT22;11483;55.828;37.488;2022-08-01T12:32:41;29.90;69.60
22633;DHT22;11483;55.828;37.488;2022-08-01T12:35:12;29.60;69.30
22633;DHT22;11483;55.828;37.488;2022-08-01T12:37:44;29.40;69.00
22633;DHT22;11483;55.828;37.488;2022-08-01T12:40:30;29.70;69.20
22633;DHT22;11483;55.828;37.488;2022-08-01T12:45:49;30.00;66.80
22633;DHT22;11483;55.828;37.488;2022-08-01T12:48:16;29.90;68.20
22633;DHT22;11483;55.828;37.488;2022-08-01T12:50:45;30.40;67.40
22633;DHT22;11483;55.828;37.488;2022-08-01T12:53:11;30.60;66.60
22633;DHT22;11483;55.828;37.488;2022-08-01T12:55:54;30.70;67.30
22633;DHT22;11483;55.828;37.488;2022-08-01T12:58:20;31.00;66.70
22633;DHT22;11483;55.828;37.488;2022-08-01T13:00:51;32.00;67.00
22633;DHT22;11483;55.828;37.488;2022-08-01T13:03:27;33.40;66.20
22633;DHT22;11483;55.828;37.488;2022-08-01T13:05:55;35.10;60.90
22633;DHT22;11483;55.828;37.488;2022-08-01T13:08:34;36.80;58.70
22633;DHT22;11483;55.828;37.488;2022-08-01T13:11:11;37.90;60.00
22633;DHT22;11483;55.828;37.488;2022-08-01T13:13:41;38.90;55.10
22633;DHT22;11483;55.828;37.488;2022-08-01T13:16:07;39.80;54.00
22633;DHT22;11483;55.828;37.488;2022-08-01T13:18:34;40.10;51.70
22633;DHT22;11483;55.828;37.488;2022-08-01T13:21:23;40.00;52.20
22633;DHT22;11483;55.828;37.488;2022-08-01T13:24:06;40.30;50.50
22633;DHT22;11483;55.828;37.488;2022-08-01T13:29:18;39.40;49.80
22633;DHT22;11483;55.828;37.488;2022-08-01T13:31:46;40.00;50.10
22633;DHT22;11483;55.828;37.488;2022-08-01T13:34:12;40.10;50.00
22633;DHT22;11483;55.828;37.488;2022-08-01T13:36:38;40.40;49.60
22633;DHT22;11483;55.828;37.488;2022-08-01T13:39:04;40.90;48.50
22633;DHT22;11483;55.828;37.488;2022-08-01T13:41:49;40.10;47.90
22633;DHT22;11483;55.828;37.488;2022-08-01T13:44:15;39.30;48.40
22633;DHT22;11483;55.828;37.488;2022-08-01T13:46:42;39.70;48.50
22633;DHT22;11483;55.828;37.488;2022-08-01T13:49:10;40.20;47.30
22633;DHT22;11483;55.828;37.488;2022-08-01T13:51:37;40.00;47.70
22633;DHT22;11483;55.828;37.488;2022-08-01T13:54:04;40.50;48.30
22633;DHT22;11483;55.828;37.488;2022-08-01T13:56:30;41.00;48.40
22633;DHT22;11483;55.828;37.488;2022-08-01T13:58:56;41.30;48.00
22633;DHT22;11483;55.828;37.488;2022-08-01T14:01:22;41.60;46.40
22633;DHT22;11483;55.828;37.488;2022-08-01T14:03:48;41.10;47.50
22633;DHT22;11483;55.828;37.488;2022-08-01T14:06:14;40.30;47.30
22633;DHT22;11483;55.828;37.488;2022-08-01T14:08:42;39.20;48.30
22633;DHT22;11483;55.828;37.488;2022-08-01T14:11:08;38.30;49.80
22633;DHT22;11483;55.828;37.488;2022-08-01T14:13:34;37.30;49.60
22633;DHT22;11483;55.828;37.488;2022-08-01T14:16:02;35.90;50.60
22633;DHT22;11483;55.828;37.488;2022-08-01T14:18:28;34.80;51.00
22633;DHT22;11483;55.828;37.488;2022-08-01T14:20:54;33.90;52.30
22633;DHT22;11483;55.828;37.488;2022-08-01T14:23:20;32.80;53.90
22633;DHT22;11483;55.828;37.488;2022-08-01T14:25:45;31.90;55.40
22633;DHT22;11483;55.828;37.488;2022-08-01T14:28:11;31.20;56.60
22633;DHT22;11483;55.828;37.488;2022-08-01T14:30:37;30.70;57.50
22633;DHT22;11483;55.828;37.488;2022-08-01T14:33:03;30.20;57.80
22633;DHT22;11483;55.828;37.488;2022-08-01T14:35:29;30.50;58.70
22633;DHT22;11483;55.828;37.488;2022-08-01T14:37:55;31.00;57.30
22633;DHT22;11483;55.828;37.488;2022-08-01T14:40:21;31.30;56.90
22633;DHT22;11483;55.828;37.488;2022-08-01T14:42:46;31.30;56.20
22633;DHT22;11483;55.828;37.488;2022-08-01T14:45:12;31.30;57.00
22633;DHT22;11483;55.828;37.488;2022-08-01T14:47:39;31.20;56.60
22633;DHT22;11483;55.828;37.488;2022-08-01T14:50:05;31.10;56.90
22633;DHT22;11483;55.828;37.488;2022-08-01T14:52:32;30.90;57.70
22633;DHT22;11483;55.828;37.488;2022-08-01T14:54:58;31.50;56.50
22633;DHT22;11483;55.828;37.488;2022-08-01T14:57:23;31.50;56.40
22633;DHT22;11483;55.828;37.488;2022-08-01T14:59:49;31.10;56.30
22633;DHT22;11483;55.828;37.488;2022-08-01T15:02:15;30.70;57.30
22633;DHT22;11483;55.828;37.488;2022-08-01T15:04:45;30.40;58.10
22633;DHT22;11483;55.828;37.488;2022-08-01T15:07:11;30.10;57.80
22633;DHT22;11483;55.828;37.488;2022-08-01T15:09:37;29.70;58.50
22633;DHT22;11483;55.828;37.488;2022-08-01T15:12:03;29.30;58.90
22633;DHT22;11483;55.828;37.488;2022-08-01T15:14:29;29.10;61.00
22633;DHT22;11483;55.828;37.488;2022-08-01T15:17:17;28.90;60.20
22633;DHT22;11483;55.828;37.488;2022-08-01T15:19:42;28.70;59.80
22633;DHT22;11483;55.828;37.488;2022-08-01T15:22:08;28.40;60.90
22633;DHT22;11483;55.828;37.488;2022-08-01T15:24:34;28.20;62.10
22633;DHT22;11483;55.828;37.488;2022-08-01T15:27:00;28.00;62.90
22633;DHT22;11483;55.828;37.488;2022-08-01T15:29:26;27.80;62.60
22633;DHT22;11483;55.828;37.488;2022-08-01T15:31:51;27.60;61.60
22633;DHT22;11483;55.828;37.488;2022-08-01T15:34:17;27.40;63.40
22633;DHT22;11483;55.828;37.488;2022-08-01T15:36:43;27.30;62.60
22633;DHT22;11483;55.828;37.488;2022-08-01T15:39:12;27.20;62.50
22633;DHT22;11483;55.828;37.488;2022-08-01T15:41:39;27.00;63.10
22633;DHT22;11483;55.828;37.488;2022-08-01T15:44:04;26.90;63.80
22633;DHT22;11483;55.828;37.488;2022-08-01T15:46:30;26.50;67.20
22633;DHT22;11483;55.828;37.488;2022-08-01T15:48:56;26.40;66.40
22633;DHT22;11483;55.828;37.488;2022-08-01T15:51:22;26.60;65.20
22633;DHT22;11483;55.828;37.488;2022-08-01T15:53:48;26.70;67.60
22633;DHT22;11483;55.828;37.488;2022-08-01T15:56:14;26.80;66.30
22633;DHT22;11483;55.828;37.488;2022-08-01T15:58:39;26.80;65.90
22633;DHT22;11483;55.828;37.488;2022-08-01T16:01:05;26.80;64.90
22633;DHT22;11483;55.828;37.488;2022-08-01T16:03:31;26.70;67.20
22633;DHT22;11483;55.828;37.488;2022-08-01T16:05:57;26.80;66.40
22633;DHT22;11483;55.828;37.488;2022-08-01T16:08:23;26.60;66.40
22633;DHT22;11483;55.828;37.488;2022-08-01T16:10:49;26.70;66.60
22633;DHT22;11483;55.828;37.488;2022-08-01T16:13:15;26.90;67.50
22633;DHT22;11483;55.828;37.488;2022-08-01T16:15:41;27.10;69.10
22633;DHT22;11483;55.828;37.488;2022-08-01T16:18:09;27.40;68.50
22633;DHT22;11483;55.828;37.488;2022-08-01T16:20:37;27.60;65.00
22633;DHT22;11483;55.828;37.488;2022-08-01T16:23:03;27.70;66.30
22633;DHT22;11483;55.828;37.488;2022-08-01T16:25:29;27.60;65.60
22633;DHT22;11483;55.828;37.488;2022-08-01T16:27:55;27.60;65.50
22633;DHT22;11483;55.828;37.488;2022-08-01T16:30:21;27.40;63.70
22633;DHT22;11483;55.828;37.488;2022-08-01T16:32:47;27.20;64.10